• Join FlightAware (Why Join?)
  • Login
  • US Flag 
06:25AM EST


 

Airport Tracker/Info


-or-


 

Live Flight TrackerFlight Track Log ✈ JBU1680 ✈ 30-Apr-2013 ✈ KFLL - KDCA

Flight Track Log - Related Links

Times and Time Zones

All times are in EDT time to prevent confusion due to time zone crossing. See the JBU1680 flight status page for this flight to view local times or setup timezone preferences in your user account.

Time Position Orientation Groundspeed Altitude Reporting Facility
EDT Latitude Longitude Course Direction KTS MPH feet Rate Location/Type
06:11PM 26.0750 -80.1344 56° Northeast 151 174 800  Level Miami Center
06:12PM 26.0778 -80.0997 85° East 168 193 1,700 1,680 Climbing Miami Center
06:13PM 26.0878 -80.0261 81° East 249 287 3,900 2,100 Climbing Miami Center
06:14PM 26.2100 -79.7167 56° Northeast  Level FlightAware Approximate
06:14PM 26.1106 -79.9433 73° East 297 342 6,300  Level Miami Center
06:15PM 26.2759 -79.6194 53° Northeast  Level FlightAware Approximate
06:15PM 26.1456 -79.8586 65° Northeast 293 337 9,200  Level Miami Center
06:16PM 26.3387 -79.5188 56° Northeast  Level FlightAware Approximate
06:16PM 26.1828 -79.7761 63° Northeast 316 364 12,400  Level Miami Center
06:17PM 26.2389 -79.6894 54° Northeast 325 374 13,400 1,740 Climbing Miami Center
06:18PM 26.3011 -79.5961 53° Northeast 358 412 15,900 2,100 Climbing Miami Center
06:19PM 26.3694 -79.5164 46° Northeast 385 443 17,600 1,800 Climbing Miami Center
06:20PM 26.4792 -79.4539 27° Northeast 390 449 19,600 1,980 Climbing Miami Center
06:21PM 26.5719 -79.4047 25° Northeast 407 468 21,600 1,980 Climbing Miami Center
06:22PM 26.6881 -79.3422 26° Northeast 407 468 23,600 1,680 Climbing Miami Center
06:23PM 26.7956 -79.2886 24° Northeast 413 475 25,000 1,320 Climbing Miami Center
06:24PM 26.9050 -79.2281 26° Northeast 420 483 26,300 1,260 Climbing Miami Center
06:25PM 27.0208 -79.1650 26° Northeast 432 497 27,600 1,140 Climbing Miami Center
06:26PM 27.1328 -79.0997 27° Northeast 444 511 28,600 1,020 Climbing Miami Center
06:27PM 27.2506 -79.0364 26° Northeast 457 526 29,700 1,140 Climbing Miami Center
06:28PM 27.3581 -78.9778 26° Northeast 462 532 30,900 1,200 Climbing Miami Center
06:29PM 27.4797 -78.9378 16° North 462 532 32,200 1,020 Climbing Miami Center
06:30PM 27.6136 -78.9192 North 439 505 33,000 360 Climbing Miami Center
06:31PM 27.7350 -78.9025 North 434 499 33,000  Level Miami Center
06:32PM 27.8561 -78.8858 North 440 506 33,000  Level Miami Center
06:33PM 27.9650 -78.8714 North 435 501 33,000  Level Miami Center
06:34PM 28.0822 -78.8569 North 435 501 33,000  Level Miami Center
06:35PM 28.2056 -78.8381 North 428 493 33,000  Level Miami Center
06:36PM 28.3228 -78.8211 North 428 493 33,000  Level Miami Center
06:37PM 28.4419 -78.8044 North 428 493 33,000  Level Miami Center
06:38PM 28.5653 -78.7875 North 428 493 33,000 840 Level Miami Center
06:39PM 28.6844 -78.7708 North 433 498 34,700 1,260 Climbing Miami Center
06:40PM 28.8014 -78.7561 North 422 486 35,600 900 Climbing Miami Center
06:41PM 28.9186 -78.7367 North 422 486 36,500 660 Climbing Miami Center
06:42PM 29.0356 -78.7222 North 422 486 37,000 240 Climbing Miami Center
06:43PM 29.1506 -78.7028 North 422 486 37,000  Level Miami Center
06:44PM 29.2739 -78.6881 North 435 501 37,000  Level Miami Center
06:45PM 29.3953 -78.6711 North 435 501 37,000  Level Miami Center
06:46PM 29.5122 -78.6517 North 435 501 37,000  Level Miami Center
06:47PM 29.6314 -78.6344 North 429 494 37,000  Level Miami Center
06:48PM 29.7567 -78.6197 North 429 494 37,000  Level Miami Center
06:49PM 29.8736 -78.6025 North 429 494 37,000  Level Miami Center
06:50PM 30.0661 -78.5728 North 419 482 37,000 -60 Level Jacksonville Center
06:51PM 30.1822 -78.5533 North 437 503 36,900  Descending Jacksonville Center
06:52PM 30.3092 -78.5378 North 409 471 37,000  Climbing Jacksonville Center
06:53PM 30.4211 -78.5231 North 401 461 37,000  Level Jacksonville Center
06:54PM 30.5375 -78.5033 North 412 474 37,000  Level Jacksonville Center
06:55PM 30.6411 -78.4842 North 388 447 37,000  Level Jacksonville Center
06:56PM 30.7594 -78.4664 North 405 466 37,000  Level Jacksonville Center
06:57PM 30.8614 -78.4519 North 405 466 37,000  Level Jacksonville Center
06:58PM 30.9628 -78.4328 North 398 458 37,000  Level Jacksonville Center
06:59PM 31.0731 -78.4178 North 398 458 37,000  Level Jacksonville Center
07:00PM 31.1850 -78.3956 10° North 393 452 37,000  Level Jacksonville Center
07:01PM 31.2928 -78.3781 North 388 447 37,000  Level Jacksonville Center
07:02PM 31.4008 -78.3608 North 388 447 37,000  Level Jacksonville Center
07:03PM 31.5067 -78.3458 North 388 447 37,000  Level Jacksonville Center
07:04PM 31.6186 -78.3233 10° North 388 447 37,000  Level Jacksonville Center
07:05PM 31.7267 -78.3106 North 388 447 37,000  Level Jacksonville Center
07:06PM 31.8325 -78.2908 North 388 447 37,000  Level Jacksonville Center
07:07PM 31.9403 -78.2731 North 388 447 37,000  Level Jacksonville Center
07:08PM 32.0503 -78.2531 North 388 447 37,000  Level Jacksonville Center
07:09PM 32.1706 -78.2297 North 388 447 37,000  Level Jacksonville Center
07:10PM 32.2783 -78.2119 North 388 447 37,000  Level Jacksonville Center
07:11PM 32.3861 -78.1917 North 388 447 37,000  Level Jacksonville Center
07:12PM 32.4983 -78.1808 North 388 447 37,000  Level Jacksonville Center
07:13PM 32.6083 -78.1628 North 388 447 37,000  Level Jacksonville Center
07:14PM 32.7183 -78.1422 North 394 453 37,000  Level Jacksonville Center
07:15PM 32.8322 -78.1239 North 400 460 37,000  Level Jacksonville Center
07:16PM 32.9464 -78.1031 North 405 466 37,000  Level Jacksonville Center
07:17PM 33.0606 -78.0869 North 405 466 37,000  Level Jacksonville Center
07:20PM 33.3164 -78.0467 North 419 482 37,000  Level Washington Center
07:21PM 33.4358 -78.0278 North 424 488 37,000  Level Washington Center
07:22PM 33.5531 -78.0061 North 424 488 37,000  Level Washington Center
07:23PM 33.6703 -77.9872 North 424 488 37,000  Level Washington Center
07:24PM 33.7872 -77.9681 North 424 488 37,000  Level Washington Center
07:25PM 33.9169 -77.9492 North 431 496 37,000  Level Washington Center
07:26PM 34.0342 -77.9300 North 445 512 37,000  Level Washington Center
07:27PM 34.1536 -77.9083 North 445 512 37,000  Level Washington Center
07:28PM 34.2750 -77.8867 North 445 512 37,000  Level Washington Center
07:29PM 34.3983 -77.8722 North 445 512 37,000  Level Washington Center
07:30PM 34.5197 -77.8581 North 445 512 37,000  Level Washington Center
07:31PM 34.6408 -77.8489 North 440 506 37,000  Level Washington Center
07:32PM 34.7600 -77.8319 North 440 506 37,000  Level Washington Center
07:33PM 34.8750 -77.8200 North 427 491 37,000  Level Washington Center
07:34PM 34.9983 -77.8081 North 427 491 37,000  Level Washington Center
07:35PM 35.1197 -77.7936 North 427 491 37,000  Level Washington Center
07:36PM 35.2389 -77.7817 North 427 491 37,000  Level Washington Center
07:37PM 35.3622 -77.7672 North 427 491 37,000  Level Washington Center
07:38PM 35.4814 -77.7525 North 427 491 37,000  Level Washington Center
07:39PM 35.6025 -77.7431 North 427 491 37,000  Level Washington Center
07:40PM 35.7239 -77.7308 North 427 491 37,000  Level Washington Center
07:41PM 35.8431 -77.7086 North 427 491 37,000  Level Washington Center
07:42PM 35.9647 -77.6861 North 427 491 37,000 -180 Level Washington Center
07:43PM 36.0861 -77.6611 North 427 491 36,700 -1,680 Descending Washington Center
07:44PM 36.2033 -77.6358 10° North 427 491 33,600 -3,180 Descending Washington Center
07:45PM 36.3372 -77.6058 10° North 438 504 30,400 -2,760 Descending Washington Center
07:46PM 36.4525 -77.5831 North 438 504 28,200 -1,740 Descending Washington Center
07:47PM 36.5697 -77.5575 10° North 425 489 27,000 -780 Descending Washington Center
07:48PM 36.6828 -77.5292 11° North 414 476 26,700 -720 Descending Washington Center
07:49PM 36.7981 -77.5008 11° North 414 476 25,600 -1,140 Descending Washington Center
07:50PM 36.9111 -77.4700 12° North 414 476 24,500 -840 Descending Washington Center
07:51PM 37.0222 -77.4414 12° North 408 470 24,000 -300 Descending Washington Center
07:52PM 37.1331 -77.4156 11° North 408 470 24,000 -600 Level Washington Center
07:53PM 37.2464 -77.3869 11° North 408 470 22,800 -1,260 Descending Washington Center
07:54PM 37.3531 -77.3606 11° North 408 470 21,600 -960 Descending Washington Center
07:55PM 37.4597 -77.3317 12° North 403 464 21,000 -300 Descending Washington Center
07:56PM 37.5686 -77.3053 11° North 391 450 21,000 -420 Level Washington Center
07:57PM 37.6775 -77.2842 North 391 450 20,200 -1,440 Descending Washington Center
07:58PM 37.7800 -77.2628 North 391 450 18,200 -2,040 Descending Washington Center
07:59PM 37.8825 -77.2414 North 380 437 16,100 -1,920 Descending Washington Center
08:00PM 37.9808 -77.2197 10° North 367 422 14,400 -1,860 Descending Washington Center
08:01PM 38.0747 -77.2061 North 351 404 12,500 -1,860 Descending Washington Center
08:02PM 38.1667 -77.1894 North 344 396 10,700 -1,260 Descending Washington Center
08:03PM 38.2483 -77.1647 13° North 323 372 10,000 -360 Descending Washington Center
08:04PM 38.3236 -77.1481 10° North 292 336 10,000 -600 Level Washington Center
08:05PM 38.3850 -77.0883 37° Northeast 259 298 8,800 -1,380 Descending Washington Center
08:06PM 38.4419 -77.0258 41° Northeast 264 304 7,200 -1,500 Descending Washington Center
08:07PM 38.5131 -77.0086 11° North 251 289 5,900 -1,200 Descending Washington Center
08:08PM 38.5797 -77.0153 356° North 237 273 4,900 -1,200 Descending Washington Center
08:09PM 38.6422 -77.0217 355° North 231 266 3,500 -1,560 Descending Washington Center
08:09PM 38.6667 -77.0167 North 213 245 2,700 -780 Descending Potomac TRACON
08:10PM 38.7167 -77.0167 360° North 168 193 2,400 -660 Descending Potomac TRACON
08:12PM 38.8500 -77.0333 North  Level FlightAware Approximate
08:12PM 38.8000 -77.0333 North 135 155 800  Level Potomac TRACON
08:14PM 38.8500 -77.0333 North  Level FlightAware Approximate
08:21PM 38.8519 -77.0377 North  Level Estimated
08:22PM 38.8500 -77.0333 North  Level FlightAware Approximate
08:23PM 38.8519 -77.0377 North  Level Estimated
08:24PM 38.8500 -77.0333 North  Level FlightAware Approximate
08:25PM 38.8519 -77.0377 North  Level Estimated
08:26PM 38.8500 -77.0333 North  Level FlightAware Approximate